52CN weather

Ponderosa Sky Ranch Airport
Paynes Creek, California, United States

Public forecast

Using degrees Fahrenheit for public forecast. Weather courtesy of forecast.io.

Closest aviation weather report (METAR) to Ponderosa Sky Ranch Airport

Closest report is Red Bluff Municipal Airport, 24.8 nm (45.9 km) WSW. Retrieved 2019/10/16 14:54 UTC (40 minutes ago):

KRBL 161454Z AUTO 34004KT 10SM CLR 08/M01 A3000 RMK AO2 SLP157 T00831006 53002

Closest aviation forecast (TAF) to Ponderosa Sky Ranch Airport

Closest forecast is Red Bluff Municipal Airport, 24.8 nm (45.9 km) WSW. Retrieved 2019/10/16 12:42 UTC (3 hours ago):

TAF KRBL 161139Z 1612/1712 32005KT P6SM FEW250 FM162100 17007KT P6SM BKN250 FM170300 28005KT P6SM BKN100 TEMPO 1703/1706 P6SM -SHRA BKN070